createdAt,value
2018-02-22T00:04:54.411Z,35.60
2018-02-22T00:07:23.226Z,35.70
2018-02-22T00:09:51.594Z,35.50
2018-02-22T00:12:19.646Z,35.50
2018-02-22T00:14:48.468Z,36.20
2018-02-22T00:17:16.522Z,35.50
2018-02-22T00:19:44.562Z,35.70
2018-02-22T00:22:13.738Z,53.20
2018-02-22T00:24:42.965Z,45.60
2018-02-22T00:27:11.002Z,44.30
2018-02-22T00:34:38.262Z,43.70
2018-02-22T00:37:06.325Z,40.80
2018-02-22T00:39:34.386Z,40.90
2018-02-22T00:42:03.214Z,35.40
2018-02-22T00:44:31.278Z,35.30
2018-02-22T00:47:00.444Z,49.00
2018-02-22T00:49:29.258Z,36.90
2018-02-22T00:51:57.287Z,35.60
2018-02-22T00:54:26.473Z,55.30
2018-02-22T00:56:54.536Z,48.10
2018-02-22T00:59:22.599Z,47.30
2018-02-22T01:01:50.640Z,56.60
2018-02-22T01:04:18.704Z,36.30
2018-02-22T01:06:46.761Z,36.80
2018-02-22T01:09:14.801Z,40.80
2018-02-22T01:11:42.886Z,35.40
2018-02-22T01:14:10.936Z,35.30
2018-02-22T01:16:39.011Z,35.20
2018-02-22T01:19:07.117Z,35.30
2018-02-22T01:21:35.158Z,35.30
2018-02-22T01:24:03.187Z,44.00
2018-02-22T01:26:31.273Z,42.60
2018-02-22T01:28:59.337Z,43.70
2018-02-22T01:31:27.401Z,36.40
2018-02-22T01:33:55.451Z,35.20
2018-02-22T01:36:23.507Z,35.30
2018-02-22T01:38:51.551Z,35.20
2018-02-22T01:41:19.606Z,35.10
2018-02-22T01:43:47.676Z,35.10
2018-02-22T01:46:16.122Z,35.20
2018-02-22T01:48:44.209Z,35.10
2018-02-22T01:51:12.266Z,35.10
2018-02-22T01:53:40.334Z,35.20
2018-02-22T01:56:08.368Z,35.20
2018-02-22T01:58:36.435Z,43.80
2018-02-22T02:01:05.407Z,35.80
2018-02-22T02:03:34.128Z,35.00
2018-02-22T02:06:02.171Z,35.10
2018-02-22T02:08:30.219Z,35.10
2018-02-22T02:10:58.258Z,35.10
2018-02-22T02:13:26.292Z,35.00
2018-02-22T02:15:54.346Z,35.00
2018-02-22T02:18:22.382Z,35.00
2018-02-22T02:20:50.418Z,42.40
2018-02-22T02:23:18.471Z,45.60
2018-02-22T02:28:16.108Z,46.80
2018-02-22T02:30:44.941Z,42.10
2018-02-22T02:33:12.992Z,40.80
2018-02-22T02:35:41.064Z,55.40
2018-02-22T02:38:09.134Z,55.50
2018-02-22T02:40:37.193Z,49.50
2018-02-22T02:43:05.236Z,35.70
2018-02-22T02:45:33.313Z,38.50
2018-02-22T02:48:01.361Z,35.50
2018-02-22T02:50:29.409Z,40.50
2018-02-22T02:52:57.470Z,38.20
2018-02-22T02:55:26.648Z,54.00
2018-02-22T02:57:54.678Z,52.50
2018-02-22T03:00:22.740Z,39.20
2018-02-22T03:02:52.292Z,58.10
2018-02-22T03:05:20.337Z,56.40
2018-02-22T03:07:49.530Z,40.80
2018-02-22T03:10:17.581Z,40.20
2018-02-22T03:12:45.628Z,34.90
2018-02-22T03:15:13.673Z,34.70
2018-02-22T03:17:41.724Z,38.90
2018-02-22T03:20:10.908Z,46.90
2018-02-22T03:22:38.957Z,44.50
2018-02-22T03:25:07.013Z,48.70
2018-02-22T03:27:35.075Z,39.90
2018-02-22T03:30:03.121Z,39.00
2018-02-22T03:32:31.177Z,36.70
2018-02-22T03:34:59.221Z,40.90
2018-02-22T03:37:27.268Z,42.00
2018-02-22T03:39:55.321Z,45.00
2018-02-22T03:42:24.119Z,44.70
2018-02-22T03:44:52.158Z,43.50
2018-02-22T03:47:20.437Z,40.20
2018-02-22T03:49:48.465Z,43.60
2018-02-22T03:52:17.262Z,42.40
2018-02-22T03:54:45.299Z,41.30
2018-02-22T03:57:13.343Z,45.10
2018-02-22T03:59:41.393Z,34.60
2018-02-22T04:02:09.437Z,34.60
2018-02-22T04:04:37.468Z,34.60
2018-02-22T04:07:05.523Z,41.60
2018-02-22T04:09:33.559Z,36.50
2018-02-22T04:12:01.606Z,34.70
2018-02-22T04:14:29.634Z,34.50
2018-02-22T04:16:57.682Z,34.50
2018-02-22T04:19:25.739Z,34.50
2018-02-22T04:21:53.756Z,36.60
2018-02-22T04:24:21.810Z,36.40
2018-02-22T04:26:49.848Z,38.50
2018-02-22T04:29:17.926Z,33.90
2018-02-22T04:31:46.853Z,35.30
2018-02-22T04:34:15.163Z,34.90
2018-02-22T04:36:43.206Z,34.20
2018-02-22T04:39:11.274Z,43.50
2018-02-22T04:41:40.112Z,33.20
2018-02-22T04:44:08.174Z,32.80
2018-02-22T04:46:36.210Z,33.20
2018-02-22T04:49:04.243Z,33.50
2018-02-22T04:51:32.309Z,44.20
2018-02-22T04:54:00.340Z,44.80
2018-02-22T04:56:28.373Z,44.80
2018-02-22T04:58:56.410Z,33.30
2018-02-22T05:01:24.458Z,33.50
2018-02-22T05:03:52.491Z,33.70
2018-02-22T05:06:20.526Z,34.10
2018-02-22T05:08:49.332Z,38.30
2018-02-22T05:11:17.404Z,37.50
2018-02-22T05:13:45.439Z,45.00
2018-02-22T05:16:14.994Z,51.40
2018-02-22T05:18:43.040Z,50.50
2018-02-22T05:26:10.271Z,74.30
2018-02-22T05:28:38.339Z,53.70
2018-02-22T05:31:07.920Z,36.10
2018-02-22T05:33:35.982Z,35.50
2018-02-22T05:36:04.028Z,34.90
2018-02-22T05:38:32.852Z,35.50
2018-02-22T05:41:00.884Z,34.90
2018-02-22T05:43:29.475Z,34.90
2018-02-22T05:45:57.514Z,35.00
2018-02-22T05:48:25.560Z,34.90
2018-02-22T05:50:53.594Z,35.00
2018-02-22T05:53:21.631Z,34.80
2018-02-22T05:55:49.671Z,34.80
2018-02-22T05:58:17.734Z,34.80
2018-02-22T06:00:45.804Z,34.60
2018-02-22T06:03:13.859Z,34.60
2018-02-22T06:05:41.903Z,34.70
2018-02-22T06:08:09.930Z,34.40
2018-02-22T06:10:37.974Z,34.30
2018-02-22T06:13:06.006Z,34.30
2018-02-22T06:15:34.048Z,34.30
2018-02-22T06:18:02.088Z,34.30
2018-02-22T06:20:30.125Z,34.30
2018-02-22T06:22:58.158Z,34.30
2018-02-22T06:25:26.191Z,34.40
2018-02-22T06:27:54.227Z,34.50
2018-02-22T06:30:22.260Z,34.80
2018-02-22T06:32:50.305Z,35.50
2018-02-22T06:35:18.398Z,37.20
2018-02-22T06:37:46.437Z,44.60
2018-02-22T06:40:14.467Z,40.90
2018-02-22T06:42:42.503Z,36.00
2018-02-22T06:45:10.538Z,36.50
2018-02-22T06:47:38.587Z,38.90
2018-02-22T06:50:06.631Z,33.10
2018-02-22T06:52:34.677Z,45.20
2018-02-22T06:55:02.709Z,35.40
2018-02-22T06:57:30.765Z,35.60
2018-02-22T06:59:58.806Z,36.50
2018-02-22T07:02:26.861Z,47.20
2018-02-22T07:04:54.893Z,52.00
2018-02-22T07:07:22.927Z,45.00
2018-02-22T07:09:50.977Z,37.10
2018-02-22T07:12:19.033Z,37.20
2018-02-22T07:14:47.085Z,36.90
2018-02-22T07:17:15.123Z,37.10
2018-02-22T07:19:43.937Z,37.60
2018-02-22T07:22:12.067Z,37.00
2018-02-22T07:24:40.139Z,37.40
2018-02-22T07:27:09.695Z,50.60
2018-02-22T07:29:37.815Z,51.10
2018-02-22T07:32:07.389Z,48.00
2018-02-22T07:34:35.437Z,46.90
2018-02-22T07:37:03.501Z,47.50
2018-02-22T07:39:31.539Z,48.10
2018-02-22T07:42:00.758Z,50.50
2018-02-22T07:44:29.568Z,48.00
2018-02-22T07:46:57.626Z,46.80
2018-02-22T07:49:25.660Z,49.00
2018-02-22T07:51:54.020Z,45.80
2018-02-22T07:54:22.084Z,45.50
2018-02-22T07:56:50.163Z,42.20
2018-02-22T07:59:18.233Z,38.80
2018-02-22T08:01:46.320Z,37.30
2018-02-22T08:04:14.396Z,37.10
2018-02-22T08:06:42.453Z,37.10
2018-02-22T08:09:10.500Z,39.50
2018-02-22T08:18:21.843Z,41.70
2018-02-22T08:20:49.904Z,41.60
2018-02-22T08:23:17.963Z,41.70
2018-02-22T08:25:46.056Z,41.70
2018-02-22T08:28:14.136Z,41.70
2018-02-22T08:30:42.183Z,41.60
2018-02-22T08:33:10.259Z,41.30
2018-02-22T08:35:38.296Z,41.50
2018-02-22T08:38:06.373Z,41.30
2018-02-22T08:40:34.413Z,41.40
2018-02-22T08:43:03.980Z,42.00
2018-02-22T08:45:32.045Z,41.30
2018-02-22T08:48:00.098Z,41.20
2018-02-22T08:50:28.130Z,41.20
2018-02-22T08:52:56.185Z,41.30
2018-02-22T08:55:24.225Z,41.30
2018-02-22T08:57:52.290Z,41.20
2018-02-22T09:00:21.094Z,41.80
2018-02-22T09:02:49.176Z,41.00
2018-02-22T09:05:17.225Z,40.50
2018-02-22T09:07:45.295Z,42.40
2018-02-22T09:10:13.319Z,39.20
2018-02-22T09:12:41.358Z,35.60
2018-02-22T09:15:09.388Z,36.50
2018-02-22T09:17:37.426Z,44.10
2018-02-22T09:20:05.490Z,36.90
2018-02-22T09:22:33.529Z,35.00
2018-02-22T09:25:01.758Z,37.00
2018-02-22T09:27:29.793Z,35.50
2018-02-22T09:29:57.831Z,41.00
2018-02-22T09:32:25.904Z,52.00
2018-02-22T09:34:53.950Z,47.00
2018-02-22T09:37:22.019Z,45.40
2018-02-22T09:39:51.171Z,53.70
2018-02-22T09:42:19.244Z,52.50
2018-02-22T09:44:47.298Z,53.90
2018-02-22T09:47:15.334Z,51.40
2018-02-22T09:49:43.656Z,48.20
2018-02-22T09:52:11.845Z,36.80
2018-02-22T09:54:39.938Z,41.90
2018-02-22T09:57:07.979Z,38.90
2018-02-22T09:59:36.044Z,35.40
2018-02-22T10:02:04.528Z,46.00
2018-02-22T10:04:32.591Z,42.80
2018-02-22T10:07:01.420Z,34.50
2018-02-22T10:09:29.467Z,33.90
2018-02-22T10:11:57.520Z,54.50
2018-02-22T10:14:25.576Z,49.50
2018-02-22T10:16:53.801Z,39.40
2018-02-22T10:19:21.862Z,41.90
2018-02-22T10:21:49.928Z,42.60
2018-02-22T10:24:17.975Z,40.00
2018-02-22T10:26:46.044Z,43.20
2018-02-22T10:29:14.075Z,46.70
2018-02-22T10:31:42.107Z,46.60
2018-02-22T10:34:10.138Z,46.50
2018-02-22T10:36:38.186Z,46.10
2018-02-22T10:39:06.254Z,45.50
2018-02-22T10:41:34.310Z,46.10
2018-02-22T10:44:02.352Z,44.10
2018-02-22T10:46:30.414Z,42.70
2018-02-22T10:48:58.453Z,42.70
2018-02-22T10:51:26.506Z,43.10
2018-02-22T10:53:54.561Z,44.20
2018-02-22T10:56:22.648Z,44.80
2018-02-22T10:58:51.549Z,45.80
2018-02-22T11:01:25.071Z,45.00
2018-02-22T11:03:53.155Z,45.20
2018-02-22T11:06:21.198Z,46.10
2018-02-22T11:08:49.238Z,46.00
2018-02-22T11:11:17.295Z,44.50
2018-02-22T11:13:45.360Z,38.90
2018-02-22T11:16:13.424Z,39.00
2018-02-22T11:18:41.484Z,39.10
2018-02-22T11:21:09.513Z,39.10
2018-02-22T11:23:37.585Z,42.20
2018-02-22T11:26:05.676Z,43.70
2018-02-22T11:28:33.704Z,47.50
2018-02-22T11:33:31.351Z,58.00
2018-02-22T11:35:59.416Z,59.10
2018-02-22T11:38:27.466Z,59.10
2018-02-22T11:40:55.512Z,60.70
2018-02-22T11:48:22.978Z,59.40
2018-02-22T11:50:51.836Z,39.10
2018-02-22T11:53:19.928Z,37.30
2018-02-22T11:55:48.391Z,47.70
2018-02-22T11:58:16.475Z,48.90
2018-02-22T12:00:44.518Z,50.50
2018-02-22T12:03:12.569Z,42.50
2018-02-22T12:05:40.616Z,38.90
2018-02-22T12:08:08.667Z,38.70
2018-02-22T12:10:36.717Z,38.60
2018-02-22T12:13:04.762Z,38.70
2018-02-22T12:15:32.868Z,38.80
2018-02-22T12:18:02.386Z,39.00
2018-02-22T12:20:30.423Z,39.50
2018-02-22T12:22:58.465Z,39.50
2018-02-22T12:25:27.282Z,42.90
2018-02-22T12:27:55.327Z,42.00
2018-02-22T12:30:23.365Z,42.30
2018-02-22T12:32:51.433Z,42.80
2018-02-22T12:35:19.490Z,45.90
2018-02-22T12:37:47.543Z,46.50
2018-02-22T12:40:16.339Z,46.70
2018-02-22T12:42:44.402Z,45.90
2018-02-22T12:45:12.432Z,49.50
2018-02-22T12:47:40.475Z,51.50
2018-02-22T12:50:08.539Z,51.50
2018-02-22T12:52:36.579Z,51.30
2018-02-22T12:55:05.400Z,51.90
2018-02-22T12:57:33.435Z,51.00
2018-02-22T13:00:01.481Z,51.00
2018-02-22T13:04:59.118Z,48.40
2018-02-22T13:07:27.154Z,47.40
2018-02-22T13:09:55.173Z,47.80
2018-02-22T13:12:23.210Z,47.50
2018-02-22T13:14:52.022Z,48.10
2018-02-22T13:17:20.088Z,47.20
2018-02-22T13:19:48.140Z,47.00
2018-02-22T13:22:16.176Z,47.30
2018-02-22T13:24:44.273Z,47.80
2018-02-22T13:27:12.294Z,43.60
2018-02-22T13:29:40.332Z,42.20
2018-02-22T13:32:09.155Z,42.80
2018-02-22T13:34:37.191Z,42.10
2018-02-22T13:37:05.324Z,43.60
2018-02-22T13:39:33.366Z,48.60
2018-02-22T13:42:01.412Z,49.00
2018-02-22T13:44:29.452Z,47.50
2018-02-22T13:46:57.507Z,49.30
2018-02-22T13:49:25.554Z,34.90
2018-02-22T13:51:53.579Z,37.90
2018-02-22T13:54:22.397Z,36.50
2018-02-22T13:56:50.449Z,35.50
2018-02-22T13:59:18.492Z,32.90
2018-02-22T14:01:46.542Z,34.60
2018-02-22T14:04:14.598Z,31.70
2018-02-22T14:06:42.635Z,34.10
2018-02-22T14:09:11.451Z,27.00
2018-02-22T14:11:39.519Z,26.60
2018-02-22T14:14:07.577Z,26.50
2018-02-22T14:19:05.219Z,46.90
2018-02-22T14:21:33.268Z,33.60
2018-02-22T14:24:01.315Z,31.10
2018-02-22T14:26:29.351Z,31.40
2018-02-22T14:28:57.421Z,30.00
2018-02-22T14:31:25.489Z,35.90
2018-02-22T14:33:53.518Z,35.40
2018-02-22T14:36:21.640Z,35.10
2018-02-22T14:38:49.716Z,34.80
2018-02-22T14:41:17.791Z,36.30
2018-02-22T14:43:45.839Z,34.70
2018-02-22T14:46:13.913Z,35.00
2018-02-22T14:48:41.960Z,31.30
2018-02-22T14:51:10.018Z,29.60
2018-02-22T14:53:38.064Z,29.70
2018-02-22T14:56:06.138Z,31.40
2018-02-22T14:58:34.956Z,32.50
2018-02-22T15:01:07.934Z,32.50
2018-02-22T15:03:36.002Z,32.60
2018-02-22T15:06:04.065Z,33.40
2018-02-22T15:08:32.098Z,32.80
2018-02-22T15:11:00.193Z,32.90
2018-02-22T15:13:28.238Z,33.30
2018-02-22T15:15:56.292Z,33.30
2018-02-22T15:18:24.331Z,33.30
2018-02-22T15:20:52.457Z,33.50
2018-02-22T15:23:20.485Z,33.60
2018-02-22T15:25:48.534Z,33.70
2018-02-22T15:28:17.339Z,33.80
2018-02-22T15:30:45.414Z,33.80
2018-02-22T15:33:13.771Z,33.90
2018-02-22T15:35:42.597Z,34.50
2018-02-22T15:38:10.635Z,34.10
2018-02-22T15:40:38.683Z,34.00
2018-02-22T15:43:06.728Z,34.20
2018-02-22T15:45:34.772Z,34.20
2018-02-22T15:48:02.818Z,35.30
2018-02-22T15:50:30.851Z,37.60
2018-02-22T15:52:58.917Z,39.60
2018-02-22T15:55:26.989Z,43.10
2018-02-22T15:57:55.051Z,38.40
2018-02-22T16:00:23.441Z,42.60
2018-02-22T16:02:51.502Z,37.40
2018-02-22T16:05:19.548Z,36.20
2018-02-22T16:07:47.599Z,35.20
2018-02-22T16:10:16.404Z,40.00
2018-02-22T16:12:44.480Z,39.20
2018-02-22T16:15:12.532Z,40.70
2018-02-22T16:17:40.588Z,43.70
2018-02-22T16:20:08.668Z,43.30
2018-02-22T16:22:36.700Z,34.00
2018-02-22T16:25:04.739Z,31.00
2018-02-22T16:27:32.792Z,32.20
2018-02-22T16:30:00.869Z,33.00
2018-02-22T16:32:29.695Z,34.60
2018-02-22T16:34:57.786Z,34.10
2018-02-22T16:37:25.848Z,34.30
2018-02-22T16:39:53.897Z,36.70
2018-02-22T16:42:21.963Z,42.70
2018-02-22T16:44:50.017Z,43.00
2018-02-22T16:47:18.160Z,46.10
2018-02-22T16:49:46.261Z,37.20
2018-02-22T16:52:15.091Z,37.50
2018-02-22T16:54:43.172Z,36.80
2018-02-22T16:57:11.278Z,37.60
2018-02-22T16:59:39.301Z,38.00
2018-02-22T17:02:07.465Z,38.70
2018-02-22T17:04:35.535Z,38.70
2018-02-22T17:07:03.580Z,40.10
2018-02-22T17:09:32.780Z,43.60
2018-02-22T17:12:00.820Z,42.00
2018-02-22T17:14:28.880Z,41.50
2018-02-22T17:16:56.916Z,41.70
2018-02-22T17:19:24.993Z,40.30
2018-02-22T17:21:53.800Z,42.10
2018-02-22T17:24:21.859Z,41.30
2018-02-22T17:26:55.405Z,41.80
2018-02-22T17:29:30.428Z,39.30
2018-02-22T17:32:03.932Z,38.30
2018-02-22T17:34:32.003Z,39.10
2018-02-22T17:37:02.427Z,39.80
2018-02-22T17:39:36.727Z,40.40
2018-02-22T17:42:04.763Z,39.70
2018-02-22T17:44:32.814Z,40.00
2018-02-22T17:47:00.890Z,40.40
2018-02-22T17:49:30.454Z,42.40
2018-02-22T17:51:58.524Z,41.50
2018-02-22T17:54:26.596Z,43.20
2018-02-22T17:56:54.635Z,43.40
2018-02-22T17:59:22.714Z,44.30
2018-02-22T18:01:50.770Z,39.50
2018-02-22T18:04:18.817Z,39.00
2018-02-22T18:06:46.905Z,39.20
2018-02-22T18:09:14.972Z,42.20
2018-02-22T18:11:44.523Z,59.70
2018-02-22T18:14:12.572Z,58.40
2018-02-22T18:16:40.640Z,50.00
2018-02-22T18:19:08.721Z,56.00
2018-02-22T18:21:36.805Z,53.10
2018-02-22T18:24:04.880Z,48.80
2018-02-22T18:26:32.937Z,48.20
2018-02-22T18:29:00.973Z,48.20
2018-02-22T18:31:29.056Z,49.40
2018-02-22T18:33:57.879Z,52.70
2018-02-22T18:36:25.923Z,51.90
2018-02-22T18:38:59.394Z,53.50
2018-02-22T18:41:27.440Z,53.30
2018-02-22T18:44:01.109Z,51.90
2018-02-22T18:46:29.160Z,50.90
2018-02-22T18:48:57.228Z,51.40
2018-02-22T18:51:25.292Z,51.60
2018-02-22T18:53:53.338Z,51.50
2018-02-22T18:56:21.403Z,51.10
2018-02-22T18:58:49.469Z,50.80
2018-02-22T19:01:17.545Z,51.00
2018-02-22T19:03:45.622Z,50.90
2018-02-22T19:06:13.698Z,50.60
2018-02-22T19:08:41.759Z,51.40
2018-02-22T19:11:09.814Z,51.50
2018-02-22T19:13:37.877Z,53.50
2018-02-22T19:16:06.710Z,54.00
2018-02-22T19:18:34.769Z,52.70
2018-02-22T19:21:02.816Z,51.90
2018-02-22T19:23:30.892Z,51.70
2018-02-22T19:25:58.970Z,51.00
2018-02-22T19:28:27.041Z,51.00
2018-02-22T19:30:55.106Z,51.50
2018-02-22T19:33:23.138Z,51.20
2018-02-22T19:35:51.231Z,51.50
2018-02-22T19:38:19.275Z,50.80
2018-02-22T19:40:47.323Z,51.00
2018-02-22T19:43:15.389Z,50.80
2018-02-22T19:45:43.478Z,51.50
2018-02-22T19:48:12.669Z,49.30
2018-02-22T19:50:40.752Z,47.70
2018-02-22T19:53:09.168Z,46.50
2018-02-22T19:55:37.237Z,45.60
2018-02-22T19:58:05.316Z,46.20
2018-02-22T20:00:33.008Z,46.50
2018-02-22T20:03:00.885Z,46.80
2018-02-22T20:05:28.929Z,46.80
2018-02-22T20:07:57.003Z,48.00
2018-02-22T20:10:25.065Z,48.20
2018-02-22T20:12:53.142Z,48.60
2018-02-22T20:15:21.217Z,48.70
2018-02-22T20:17:49.320Z,49.40
2018-02-22T20:20:17.339Z,48.10
2018-02-22T20:22:45.415Z,50.60
2018-02-22T20:25:13.485Z,49.30
2018-02-22T20:27:41.584Z,49.10
2018-02-22T20:30:09.636Z,49.10
2018-02-22T20:32:37.726Z,48.80
2018-02-22T20:35:05.798Z,48.40
2018-02-22T20:37:36.681Z,48.60
2018-02-22T20:40:05.106Z,48.60
2018-02-22T20:42:33.159Z,50.00
2018-02-22T20:45:01.250Z,49.40
2018-02-22T20:47:29.292Z,49.30
2018-02-22T20:49:57.370Z,49.40
2018-02-22T20:52:30.240Z,49.40
2018-02-22T20:55:08.228Z,49.80
2018-02-22T20:57:36.321Z,49.30
2018-02-22T21:00:04.392Z,48.90
2018-02-22T21:02:32.443Z,48.80
2018-02-22T21:05:00.513Z,49.00
2018-02-22T21:07:28.587Z,49.00
2018-02-22T21:09:56.659Z,48.80
2018-02-22T21:12:24.728Z,48.70
2018-02-22T21:14:52.759Z,48.60
2018-02-22T21:17:20.836Z,48.20
2018-02-22T21:19:48.928Z,47.70
2018-02-22T21:22:17.045Z,47.50
2018-02-22T21:24:45.099Z,46.90
2018-02-22T21:27:13.150Z,46.60
2018-02-22T21:29:41.241Z,45.90
2018-02-22T21:32:09.317Z,47.10
2018-02-22T21:34:37.368Z,47.70
2018-02-22T21:37:05.397Z,49.00
2018-02-22T21:39:33.457Z,49.60
2018-02-22T21:42:01.531Z,48.80
2018-02-22T21:44:30.345Z,54.20
2018-02-22T21:46:58.384Z,53.10
2018-02-22T21:49:26.440Z,52.20
2018-02-22T21:51:54.493Z,50.90
2018-02-22T21:54:22.523Z,50.60
2018-02-22T21:56:51.373Z,53.90
2018-02-22T21:59:19.501Z,52.80
2018-02-22T22:01:47.559Z,52.70
2018-02-22T22:04:15.604Z,52.20
2018-02-22T22:06:43.658Z,42.40
2018-02-22T22:09:11.746Z,38.60
2018-02-22T22:11:39.796Z,39.60
2018-02-22T22:14:07.846Z,39.60
2018-02-22T22:16:36.650Z,39.40
2018-02-22T22:19:04.686Z,37.70
2018-02-22T22:21:32.772Z,38.40
2018-02-22T22:24:01.586Z,38.90
2018-02-22T22:26:29.628Z,38.20
2018-02-22T22:28:57.658Z,38.90
2018-02-22T22:31:26.092Z,39.40
2018-02-22T22:33:54.137Z,39.10
2018-02-22T22:36:22.966Z,39.80
2018-02-22T22:38:51.016Z,38.70
2018-02-22T22:41:19.076Z,38.30
2018-02-22T22:43:47.114Z,38.90
2018-02-22T22:46:15.145Z,39.00
2018-02-22T22:48:43.202Z,40.20
2018-02-22T22:51:11.233Z,39.20
2018-02-22T22:53:39.287Z,38.90
2018-02-22T22:56:07.336Z,39.20
2018-02-22T22:58:36.131Z,39.00
2018-02-22T23:01:04.167Z,36.40
2018-02-22T23:03:32.232Z,36.50
2018-02-22T23:06:00.283Z,36.10
2018-02-22T23:08:28.329Z,34.10
2018-02-22T23:10:56.367Z,33.70
2018-02-22T23:13:29.799Z,33.60
2018-02-22T23:15:57.873Z,33.50
2018-02-22T23:18:25.925Z,33.50
2018-02-22T23:20:54.935Z,34.20
2018-02-22T23:23:22.998Z,33.60
2018-02-22T23:25:51.047Z,34.60
2018-02-22T23:28:19.082Z,49.70
2018-02-22T23:30:47.119Z,50.20
2018-02-22T23:33:15.187Z,52.70
2018-02-22T23:38:12.833Z,55.30
2018-02-22T23:40:46.281Z,55.60
2018-02-22T23:43:14.319Z,55.60
2018-02-22T23:45:42.367Z,54.80
2018-02-22T23:48:10.413Z,51.50
2018-02-22T23:50:38.458Z,53.50
2018-02-22T23:53:06.882Z,51.80
2018-02-22T23:55:34.948Z,51.30
2018-02-22T23:58:03.000Z,53.90
